createdAt,value
2024-04-09T05:51:35.865Z,95176.00
2024-04-09T05:52:35.834Z,95176.00
2024-04-09T05:53:35.876Z,95178.00
2024-04-09T05:54:35.937Z,95178.00
2024-04-09T05:55:36.006Z,95176.00
2024-04-09T05:56:36.028Z,95178.00
2024-04-09T05:57:36.182Z,95179.00
2024-04-09T05:58:36.203Z,95181.00
2024-04-09T05:59:36.326Z,95182.00
2024-04-09T06:00:36.550Z,95187.00
2024-04-09T06:01:36.642Z,95186.00
2024-04-09T06:02:36.704Z,95190.00
2024-04-09T06:03:36.902Z,95190.00
2024-04-09T06:04:37.031Z,95190.00
2024-04-09T06:05:36.914Z,95187.00
2024-04-09T06:06:37.151Z,95184.00
2024-04-09T06:07:37.102Z,95183.00
2024-04-09T06:08:37.184Z,95185.00
2024-04-09T06:09:37.427Z,95186.00
2024-04-09T06:10:37.361Z,95183.00
2024-04-09T06:11:37.499Z,95184.00
2024-04-09T06:12:37.576Z,95185.00
2024-04-09T06:13:37.635Z,95187.00
2024-04-09T06:14:37.715Z,95187.00
2024-04-09T06:15:37.836Z,95187.00
2024-04-09T06:16:37.894Z,95187.00
2024-04-09T06:17:38.110Z,95187.00
2024-04-09T06:18:38.404Z,95189.00
2024-04-09T06:19:38.269Z,95187.00
2024-04-09T06:20:38.144Z,95187.00
2024-04-09T06:21:38.398Z,95186.00
2024-04-09T06:22:38.267Z,95190.00
2024-04-09T06:23:38.233Z,95191.00
2024-04-09T06:24:38.440Z,95193.00
2024-04-09T06:25:38.274Z,95196.00
2024-04-09T06:26:38.322Z,95197.00
2024-04-09T06:27:38.496Z,95195.00
2024-04-09T06:28:38.361Z,95196.00
2024-04-09T06:29:38.442Z,95193.00
2024-04-09T06:30:38.587Z,95190.00
2024-04-09T06:31:38.658Z,95191.00
2024-04-09T06:32:38.918Z,95188.00
2024-04-09T06:33:39.080Z,95187.00
2024-04-09T06:34:39.029Z,95187.00
2024-04-09T06:35:39.097Z,95189.00
2024-04-09T06:36:39.249Z,95189.00
2024-04-09T06:37:39.320Z,95195.00
2024-04-09T06:38:39.423Z,95197.00
2024-04-09T06:39:39.572Z,95196.00
2024-04-09T06:40:39.632Z,95197.00
2024-04-09T06:41:39.742Z,95200.00
2024-04-09T06:42:40.034Z,95201.00
2024-04-09T06:43:39.964Z,95202.00
2024-04-09T06:44:40.069Z,95203.00
2024-04-09T06:45:40.302Z,95203.00
2024-04-09T06:46:40.273Z,95200.00
2024-04-09T06:47:40.527Z,95201.00
2024-04-09T06:48:40.732Z,95203.00
2024-04-09T06:49:40.765Z,95201.00
2024-04-09T06:50:40.723Z,95202.00
2024-04-09T06:51:40.962Z,95202.00
2024-04-09T06:52:40.953Z,95202.00
2024-04-09T06:53:41.064Z,95202.00
2024-04-09T06:54:41.170Z,95202.00
2024-04-09T06:55:41.288Z,95209.00
2024-04-09T06:56:41.355Z,95213.00
2024-04-09T06:57:41.606Z,95213.00
2024-04-09T06:58:41.578Z,95219.00
2024-04-09T06:59:41.684Z,95221.00
2024-04-09T07:00:41.889Z,95222.00
2024-04-09T07:01:42.021Z,95223.00
2024-04-09T07:02:41.990Z,95224.00
2024-04-09T07:03:42.218Z,95223.00
2024-04-09T07:04:42.170Z,95224.00
2024-04-09T07:05:42.264Z,95222.00
2024-04-09T07:06:42.506Z,95222.00
2024-04-09T07:07:42.421Z,95224.00
2024-04-09T07:08:42.539Z,95224.00
2024-04-09T07:09:42.712Z,95224.00
2024-04-09T07:10:42.679Z,95223.00
2024-04-09T07:11:42.977Z,95220.00
2024-04-09T07:12:43.108Z,95220.00
2024-04-09T07:13:42.948Z,95220.00
2024-04-09T07:14:42.984Z,95221.00
2024-04-09T07:15:43.130Z,95222.00
2024-04-09T07:16:43.259Z,95224.00
2024-04-09T07:17:43.327Z,95225.00
2024-04-09T07:18:43.498Z,95225.00
2024-04-09T07:19:43.532Z,95224.00
2024-04-09T07:20:43.639Z,95224.00
2024-04-09T07:21:43.819Z,95222.00
2024-04-09T07:22:44.166Z,95221.00
2024-04-09T07:23:43.971Z,95220.00
2024-04-09T07:24:44.029Z,95220.00
2024-04-09T07:25:44.048Z,95224.00
2024-04-09T07:26:44.126Z,95226.00
2024-04-09T07:27:44.224Z,95229.00
2024-04-09T07:28:44.256Z,95230.00
2024-04-09T07:29:44.315Z,95227.00
2024-04-09T07:30:44.465Z,95226.00
2024-04-09T07:31:44.630Z,95228.00
2024-04-09T07:32:44.696Z,95229.00
2024-04-09T07:33:44.740Z,95233.00
2024-04-09T07:34:44.816Z,95236.00
2024-04-09T07:35:45.532Z,95236.00
2024-04-09T07:36:48.083Z,95237.00
2024-04-09T07:37:44.928Z,95236.00
2024-04-09T07:38:44.934Z,95233.00
2024-04-09T07:39:44.990Z,95230.00
2024-04-09T07:40:44.934Z,95231.00
2024-04-09T07:41:44.943Z,95233.00
2024-04-09T07:42:45.059Z,95237.00
2024-04-09T07:43:44.938Z,95235.00
2024-04-09T07:44:44.946Z,95235.00
2024-04-09T07:45:44.951Z,95238.00
2024-04-09T07:46:44.945Z,95239.00
2024-04-09T07:47:45.069Z,95241.00
2024-04-09T07:49:06.354Z,95242.00
2024-04-09T07:50:06.170Z,95238.00
2024-04-09T07:51:06.331Z,95235.00
2024-04-09T07:52:06.325Z,95233.00
2024-04-09T07:53:06.402Z,95234.00
2024-04-09T07:54:06.523Z,95235.00
2024-04-09T07:55:06.519Z,95234.00
2024-04-09T07:56:06.580Z,95236.00
2024-04-09T07:57:06.730Z,95232.00
2024-04-09T07:58:06.715Z,95231.00
2024-04-09T07:59:06.874Z,95229.00
2024-04-09T08:00:06.902Z,95228.00
2024-04-09T08:01:07.061Z,95225.00
2024-04-09T08:02:07.030Z,95226.00
2024-04-09T08:03:07.173Z,95223.00
2024-04-09T08:04:07.416Z,95221.00
2024-04-09T08:05:07.450Z,95219.00
2024-04-09T08:06:07.619Z,95218.00
2024-04-09T08:07:07.561Z,95219.00
2024-04-09T08:08:07.658Z,95219.00
2024-04-09T08:09:07.594Z,95226.00
2024-04-09T08:10:07.709Z,95226.00
2024-04-09T08:11:07.594Z,95229.00
2024-04-09T08:12:07.655Z,95230.00
2024-04-09T08:13:07.694Z,95230.00
2024-04-09T08:14:07.632Z,95234.00
2024-04-09T08:15:07.690Z,95234.00
2024-04-09T08:16:07.787Z,95233.00
2024-04-09T08:17:07.759Z,95238.00
2024-04-09T08:18:08.047Z,95237.00
2024-04-09T08:19:08.015Z,95238.00
2024-04-09T08:20:07.984Z,95238.00
2024-04-09T08:21:07.965Z,95242.00
2024-04-09T08:22:08.045Z,95245.00
2024-04-09T08:23:08.148Z,95246.00
2024-04-09T08:24:08.330Z,95245.00
2024-04-09T08:25:08.375Z,95244.00
2024-04-09T08:26:08.367Z,95241.00
2024-04-09T08:27:08.522Z,95247.00
2024-04-09T08:28:08.544Z,95248.00
2024-04-09T08:29:08.599Z,95246.00
2024-04-09T08:30:08.745Z,95247.00
2024-04-09T08:31:08.768Z,95247.00
2024-04-09T08:32:08.913Z,95247.00
2024-04-09T08:33:08.990Z,95247.00
2024-04-09T08:34:11.577Z,95246.00
2024-04-09T08:35:08.985Z,95247.00
2024-04-09T08:36:09.246Z,95249.00
2024-04-09T08:37:09.206Z,95251.00
2024-04-09T08:38:08.996Z,95252.00
2024-04-09T08:39:09.352Z,95255.00
2024-04-09T08:40:09.126Z,95254.00
2024-04-09T08:41:08.979Z,95254.00
2024-04-09T08:42:09.155Z,95252.00
2024-04-09T08:43:09.081Z,95253.00
2024-04-09T08:44:09.042Z,95253.00
2024-04-09T08:45:09.097Z,95255.00
2024-04-09T08:46:09.090Z,95254.00
2024-04-09T08:47:09.180Z,95253.00
2024-04-09T08:48:09.277Z,95253.00
2024-04-09T08:49:09.267Z,95253.00
2024-04-09T08:50:11.285Z,95250.00
2024-04-09T08:51:09.675Z,95250.00
2024-04-09T08:52:09.101Z,95248.00
2024-04-09T08:53:09.016Z,95247.00
2024-04-09T08:54:09.040Z,95249.00
2024-04-09T08:55:09.041Z,95249.00
2024-04-09T08:56:09.053Z,95250.00
2024-04-09T08:57:09.078Z,95253.00
2024-04-09T08:58:09.031Z,95253.00
2024-04-09T08:59:09.063Z,95250.00
2024-04-09T09:00:09.089Z,95247.00
2024-04-09T09:01:09.103Z,95250.00
2024-04-09T09:02:09.040Z,95251.00
2024-04-09T09:03:09.185Z,95250.00
2024-04-09T09:04:09.147Z,95250.00
2024-04-09T09:05:09.149Z,95247.00
2024-04-09T09:06:09.102Z,95245.00
2024-04-09T09:07:09.071Z,95243.00
2024-04-09T09:08:09.315Z,95244.00
2024-04-09T09:09:09.047Z,95240.00
2024-04-09T09:10:09.035Z,95236.00
2024-04-09T09:11:09.077Z,95238.00
2024-04-09T09:12:09.142Z,95238.00
2024-04-09T09:13:10.292Z,95238.00
2024-04-09T09:14:09.308Z,95238.00
2024-04-09T09:15:09.434Z,95239.00
2024-04-09T09:16:09.553Z,95239.00
2024-04-09T09:17:09.689Z,95239.00
2024-04-09T09:18:09.820Z,95240.00
2024-04-09T09:19:09.867Z,95239.00
2024-04-09T09:20:09.931Z,95237.00
2024-04-09T09:21:10.062Z,95238.00
2024-04-09T09:22:10.141Z,95240.00
2024-04-09T09:23:10.242Z,95240.00
2024-04-09T09:24:10.381Z,95238.00
2024-04-09T09:25:12.566Z,95237.00
2024-04-09T09:26:10.537Z,95234.00
2024-04-09T09:27:10.597Z,95235.00
2024-04-09T09:28:10.888Z,95230.00
2024-04-09T09:29:10.767Z,95230.00
2024-04-09T09:30:10.989Z,95229.00
2024-04-09T09:31:10.924Z,95230.00
2024-04-09T09:32:11.114Z,95227.00
2024-04-09T09:33:11.252Z,95223.00
2024-04-09T09:34:11.405Z,95220.00
2024-04-09T09:35:11.366Z,95220.00
2024-04-09T09:36:11.626Z,95222.00
2024-04-09T09:37:11.635Z,95219.00
2024-04-09T09:38:11.745Z,95219.00
2024-04-09T09:39:11.868Z,95217.00
2024-04-09T09:40:11.905Z,95218.00
2024-04-09T09:41:12.016Z,95219.00
2024-04-09T09:42:12.243Z,95220.00
2024-04-09T09:43:12.244Z,95220.00
2024-04-09T09:44:12.344Z,95219.00
2024-04-09T09:45:12.478Z,95218.00
2024-04-09T09:46:12.552Z,95218.00
2024-04-09T09:47:12.700Z,95216.00
2024-04-09T09:48:12.809Z,95214.00
2024-04-09T09:49:14.760Z,95216.00
2024-04-09T09:50:18.167Z,95216.00
2024-04-09T09:51:13.904Z,95217.00
2024-04-09T09:52:12.863Z,95215.00
2024-04-09T09:53:13.552Z,95216.00
2024-04-09T09:54:12.918Z,95215.00
2024-04-09T09:55:13.046Z,95213.00
2024-04-09T09:56:12.831Z,95213.00
2024-04-09T09:57:12.936Z,95213.00
2024-04-09T09:58:12.965Z,95209.00
2024-04-09T09:59:12.893Z,95210.00
2024-04-09T10:00:12.907Z,95209.00
2024-04-09T10:01:12.990Z,95209.00
2024-04-09T10:02:12.927Z,95207.00
2024-04-09T10:03:13.087Z,95206.00
2024-04-09T10:04:13.375Z,95207.00
2024-04-09T10:05:13.187Z,95207.00
2024-04-09T10:06:13.203Z,95206.00
2024-04-09T10:07:13.273Z,95206.00
2024-04-09T10:08:13.332Z,95208.00
2024-04-09T10:09:13.444Z,95207.00
2024-04-09T10:10:13.447Z,95209.00
2024-04-09T10:11:13.554Z,95210.00
2024-04-09T10:12:16.346Z,95208.00
2024-04-09T10:13:13.566Z,95208.00
2024-04-09T10:14:13.566Z,95210.00
2024-04-09T10:15:13.582Z,95210.00
2024-04-09T10:16:13.579Z,95207.00
2024-04-09T10:17:13.603Z,95209.00
2024-04-09T10:18:13.723Z,95206.00
2024-04-09T10:19:13.718Z,95207.00
2024-04-09T10:20:13.604Z,95207.00
2024-04-09T10:21:13.648Z,95209.00
2024-04-09T10:22:13.626Z,95206.00
2024-04-09T10:23:13.600Z,95210.00
2024-04-09T10:24:13.625Z,95209.00
2024-04-09T10:25:13.603Z,95208.00
2024-04-09T10:26:13.610Z,95206.00
2024-04-09T10:27:13.707Z,95207.00
2024-04-09T10:28:13.624Z,95206.00
2024-04-09T10:29:13.634Z,95206.00
2024-04-09T10:30:13.753Z,95206.00
2024-04-09T10:31:13.629Z,95203.00
2024-04-09T10:32:13.656Z,95202.00
2024-04-09T10:33:13.767Z,95201.00
2024-04-09T10:34:13.737Z,95200.00
2024-04-09T10:35:13.602Z,95203.00
2024-04-09T10:36:14.518Z,95203.00
2024-04-09T10:37:13.748Z,95205.00
2024-04-09T10:38:13.622Z,95207.00
2024-04-09T10:39:13.688Z,95207.00
2024-04-09T10:40:14.163Z,95210.00
2024-04-09T10:41:14.586Z,95210.00
2024-04-09T10:42:13.640Z,95209.00
2024-04-09T10:43:13.628Z,95209.00
2024-04-09T10:44:13.630Z,95209.00
2024-04-09T10:45:13.685Z,95209.00
2024-04-09T10:46:15.638Z,95209.00
2024-04-09T10:47:13.730Z,95210.00
2024-04-09T10:48:13.654Z,95208.00
2024-04-09T10:49:13.644Z,95209.00
2024-04-09T10:50:13.607Z,95209.00
2024-04-09T10:51:13.916Z,95209.00
2024-04-09T10:52:13.700Z,95213.00
2024-04-09T10:53:13.714Z,95213.00
2024-04-09T10:54:13.718Z,95214.00
2024-04-09T10:55:13.712Z,95211.00
2024-04-09T10:56:13.652Z,95211.00
2024-04-09T10:57:13.739Z,95211.00
2024-04-09T10:58:13.666Z,95210.00
2024-04-09T10:59:13.684Z,95207.00
2024-04-09T11:00:13.753Z,95208.00
2024-04-09T11:01:13.729Z,95208.00
2024-04-09T11:02:13.772Z,95209.00
2024-04-09T11:03:13.960Z,95211.00
2024-04-09T11:04:13.767Z,95211.00
2024-04-09T11:05:13.940Z,95210.00
2024-04-09T11:06:13.690Z,95210.00
2024-04-09T11:07:13.669Z,95210.00
2024-04-09T11:08:13.755Z,95209.00
2024-04-09T11:09:13.743Z,95212.00
2024-04-09T11:10:13.713Z,95210.00
2024-04-09T11:11:13.755Z,95211.00
2024-04-09T11:12:13.739Z,95211.00
2024-04-09T11:13:13.707Z,95213.00
2024-04-09T11:14:13.733Z,95214.00
2024-04-09T11:15:13.718Z,95215.00
2024-04-09T11:16:13.777Z,95215.00
2024-04-09T11:17:13.720Z,95218.00
2024-04-09T11:18:13.894Z,95221.00
2024-04-09T11:19:13.890Z,95225.00
2024-04-09T11:20:13.726Z,95230.00
2024-04-09T11:21:13.818Z,95233.00
2024-04-09T11:22:13.747Z,95235.00
2024-04-09T11:23:13.787Z,95238.00
2024-04-09T11:24:14.033Z,95236.00
2024-04-09T11:25:14.121Z,95235.00
2024-04-09T11:26:14.321Z,95237.00
2024-04-09T11:27:14.476Z,95236.00
2024-04-09T11:28:14.531Z,95236.00
2024-04-09T11:29:14.662Z,95237.00
2024-04-09T11:30:14.838Z,95237.00
2024-04-09T11:31:14.810Z,95234.00
2024-04-09T11:32:14.920Z,95232.00
2024-04-09T11:33:15.186Z,95234.00
2024-04-09T11:34:15.214Z,95234.00
2024-04-09T11:35:15.312Z,95233.00
2024-04-09T11:36:23.821Z,95230.00
2024-04-09T11:37:18.116Z,95231.00
2024-04-09T11:38:15.428Z,95232.00
2024-04-09T11:39:15.443Z,95233.00
2024-04-09T11:40:15.398Z,95232.00
2024-04-09T11:41:15.388Z,95232.00
2024-04-09T11:42:15.426Z,95233.00
2024-04-09T11:43:15.398Z,95231.00
2024-04-09T11:44:15.462Z,95234.00
2024-04-09T11:45:15.505Z,95235.00
2024-04-09T11:46:15.599Z,95234.00
2024-04-09T11:47:15.542Z,95234.00
2024-04-09T11:48:15.529Z,95234.00
2024-04-09T11:49:15.687Z,95234.00
2024-04-09T11:50:15.462Z,95230.00
2024-04-09T11:51:15.514Z,95232.00
2024-04-09T11:52:15.461Z,95233.00
2024-04-09T11:53:20.226Z,95232.00
2024-04-09T11:54:18.983Z,95232.00
2024-04-09T11:55:18.403Z,95233.00
2024-04-09T11:56:15.475Z,95234.00
2024-04-09T11:57:15.482Z,95230.00
2024-04-09T11:58:15.464Z,95232.00
2024-04-09T11:59:15.479Z,95232.00
2024-04-09T12:00:15.567Z,95232.00
2024-04-09T12:01:15.570Z,95229.00
2024-04-09T12:02:15.498Z,95237.00
2024-04-09T12:03:15.592Z,95238.00
2024-04-09T12:04:15.544Z,95239.00
2024-04-09T12:05:15.774Z,95238.00
2024-04-09T12:06:15.531Z,95241.00
2024-04-09T12:07:15.466Z,95245.00
2024-04-09T12:08:15.483Z,95239.00
2024-04-09T12:09:15.588Z,95242.00
2024-04-09T12:10:15.492Z,95244.00
2024-04-09T12:11:16.576Z,95244.00
2024-04-09T12:12:15.605Z,95246.00
2024-04-09T12:13:15.481Z,95246.00
2024-04-09T12:14:15.515Z,95247.00
2024-04-09T12:15:15.505Z,95252.00
2024-04-09T12:16:15.495Z,95251.00
2024-04-09T12:17:15.985Z,95254.00
2024-04-09T12:18:15.627Z,95255.00
2024-04-09T12:19:15.726Z,95254.00
2024-04-09T12:20:15.525Z,95256.00
2024-04-09T12:21:23.159Z,95251.00
2024-04-09T12:22:24.849Z,95249.00
2024-04-09T12:23:23.117Z,95249.00
2024-04-09T12:24:23.179Z,95252.00
2024-04-09T12:25:23.132Z,95249.00
2024-04-09T12:26:23.172Z,95248.00
2024-04-09T12:27:23.179Z,95249.00
2024-04-09T12:28:23.142Z,95252.00
2024-04-09T12:29:23.132Z,95251.00
2024-04-09T12:30:23.143Z,95251.00
2024-04-09T12:31:23.139Z,95249.00
2024-04-09T12:32:23.145Z,95247.00
2024-04-09T12:33:23.373Z,95249.00
2024-04-09T12:34:23.267Z,95249.00
2024-04-09T12:35:23.217Z,95246.00
2024-04-09T12:36:23.196Z,95249.00
2024-04-09T12:37:23.152Z,95247.00
2024-04-09T12:38:23.162Z,95247.00
2024-04-09T12:39:23.208Z,95249.00
2024-04-09T12:40:23.158Z,95247.00
2024-04-09T12:41:24.935Z,95248.00
2024-04-09T12:42:23.169Z,95249.00
2024-04-09T12:43:23.154Z,95252.00
2024-04-09T12:44:23.166Z,95249.00
2024-04-09T12:45:23.189Z,95250.00
2024-04-09T12:46:23.176Z,95248.00
2024-04-09T12:47:23.193Z,95248.00
2024-04-09T12:48:23.291Z,95247.00
2024-04-09T12:49:30.899Z,95249.00
2024-04-09T12:50:24.287Z,95246.00
2024-04-09T12:51:23.246Z,95247.00
2024-04-09T12:52:23.190Z,95245.00
2024-04-09T12:53:23.164Z,95246.00
2024-04-09T12:54:23.191Z,95249.00
2024-04-09T12:55:23.173Z,95245.00
2024-04-09T12:56:23.175Z,95244.00
2024-04-09T12:57:23.206Z,95244.00
2024-04-09T12:58:23.256Z,95249.00
2024-04-09T12:59:30.545Z,95250.00
2024-04-09T13:01:24.434Z,95249.00
2024-04-09T13:02:23.470Z,95250.00
2024-04-09T13:03:23.560Z,95253.00
2024-04-09T13:04:23.467Z,95254.00
2024-04-09T13:05:23.650Z,95256.00
2024-04-09T13:06:23.370Z,95253.00
2024-04-09T13:07:23.351Z,95259.00
2024-04-09T13:08:23.343Z,95261.00
2024-04-09T13:09:23.369Z,95258.00
2024-04-09T13:10:23.356Z,95260.00
2024-04-09T13:11:23.365Z,95251.00
2024-04-09T13:12:23.357Z,95258.00
2024-04-09T13:13:23.338Z,95259.00
2024-04-09T13:14:23.332Z,95260.00
2024-04-09T13:17:23.524Z,95259.00
2024-04-09T13:18:23.440Z,95258.00
2024-04-09T13:19:23.530Z,95255.00
2024-04-09T13:20:23.334Z,95255.00
2024-04-09T13:21:23.349Z,95255.00
2024-04-09T13:22:23.370Z,95255.00
2024-04-09T13:23:23.382Z,95256.00
2024-04-09T13:24:23.373Z,95264.00
2024-04-09T13:25:23.363Z,95260.00
2024-04-09T13:26:23.491Z,95266.00
2024-04-09T13:27:23.387Z,95259.00
2024-04-09T13:28:23.384Z,95258.00
2024-04-09T13:29:23.474Z,95261.00
2024-04-09T13:30:23.396Z,95259.00
2024-04-09T13:31:23.377Z,95262.00
2024-04-09T13:32:23.641Z,95263.00
2024-04-09T13:33:23.468Z,95266.00
2024-04-09T13:34:23.929Z,95265.00
2024-04-09T13:35:23.456Z,95273.00
2024-04-09T13:36:23.379Z,95273.00
2024-04-09T13:37:23.385Z,95273.00
2024-04-09T13:38:23.484Z,95278.00
2024-04-09T13:39:23.399Z,95275.00
2024-04-09T13:40:23.385Z,95279.00
2024-04-09T13:41:23.459Z,95272.00
2024-04-09T13:42:23.384Z,95278.00
2024-04-09T13:43:24.104Z,95275.00
2024-04-09T13:44:23.544Z,95274.00
2024-04-09T13:45:23.436Z,95273.00
2024-04-09T13:46:23.445Z,95275.00
2024-04-09T13:47:23.608Z,95285.00
2024-04-09T13:48:23.655Z,95282.00
2024-04-09T13:49:23.647Z,95280.00
2024-04-09T13:50:23.568Z,95279.00
2024-04-09T13:51:23.444Z,95278.00
2024-04-09T13:52:23.449Z,95282.00
2024-04-09T13:53:23.521Z,95279.00
2024-04-09T13:54:23.457Z,95275.00
2024-04-09T13:55:23.464Z,95276.00
2024-04-09T13:56:23.482Z,95279.00
2024-04-09T13:57:23.454Z,95281.00
2024-04-09T13:58:23.467Z,95283.00
2024-04-09T13:59:23.538Z,95284.00
2024-04-09T14:00:23.513Z,95282.00
2024-04-09T14:01:23.511Z,95284.00
2024-04-09T14:02:24.332Z,95282.00
2024-04-09T14:03:23.722Z,95289.00
2024-04-09T14:04:23.762Z,95285.00
2024-04-09T14:05:23.953Z,95284.00
2024-04-09T14:06:23.853Z,95287.00
2024-04-09T14:07:23.950Z,95289.00
2024-04-09T14:08:24.093Z,95294.00
2024-04-09T14:09:24.130Z,95290.00
2024-04-09T14:10:24.190Z,95287.00
2024-04-09T14:11:24.543Z,95285.00
2024-04-09T14:12:24.497Z,95286.00
2024-04-09T14:13:24.527Z,95288.00
2024-04-09T14:14:24.659Z,95290.00
2024-04-09T14:15:24.606Z,95294.00
2024-04-09T14:16:24.680Z,95290.00
2024-04-09T14:17:24.926Z,95288.00
2024-04-09T14:18:25.031Z,95293.00
2024-04-09T14:19:24.990Z,95291.00
2024-04-09T14:21:25.203Z,95295.00
2024-04-09T14:22:25.247Z,95300.00
2024-04-09T14:23:25.562Z,95303.00
2024-04-09T14:24:25.408Z,95303.00
2024-04-09T14:25:25.494Z,95307.00
2024-04-09T14:26:25.631Z,95321.00
2024-04-09T14:27:25.708Z,95312.00
2024-04-09T14:28:25.791Z,95318.00
2024-04-09T14:29:25.881Z,95324.00
2024-04-09T14:30:25.976Z,95325.00
2024-04-09T14:31:26.034Z,95331.00
2024-04-09T14:32:26.204Z,95339.00
2024-04-09T14:33:26.330Z,95342.00
2024-04-09T14:34:26.320Z,95344.00
2024-04-09T14:35:26.439Z,95351.00
2024-04-09T14:36:26.462Z,95357.00
2024-04-09T14:37:26.529Z,95361.00
2024-04-09T14:38:26.948Z,95366.00
2024-04-09T14:39:26.716Z,95368.00
2024-04-09T14:40:26.792Z,95371.00
2024-04-09T14:41:26.929Z,95376.00
2024-04-09T14:42:26.991Z,95381.00
2024-04-09T14:43:27.080Z,95388.00
2024-04-09T14:44:27.252Z,95395.00
2024-04-09T14:45:27.236Z,95396.00
2024-04-09T14:46:27.317Z,95395.00
2024-04-09T14:47:27.480Z,95400.00
2024-04-09T14:48:27.575Z,95409.00
2024-04-09T14:49:27.703Z,95409.00
2024-04-09T14:50:27.701Z,95412.00
2024-04-09T14:51:27.756Z,95418.00
2024-04-09T14:52:27.873Z,95419.00
2024-04-09T14:53:28.060Z,95417.00
2024-04-09T14:54:28.063Z,95424.00
2024-04-09T14:55:28.124Z,95431.00
2024-04-09T14:56:28.278Z,95437.00
2024-04-09T14:57:28.316Z,95439.00
2024-04-09T14:58:28.409Z,95440.00
2024-04-09T14:59:28.555Z,95447.00
2024-04-09T15:00:28.584Z,95451.00
2024-04-09T15:01:28.729Z,95466.00
2024-04-09T15:02:28.886Z,95461.00
2024-04-09T15:03:29.167Z,95464.00
2024-04-09T15:04:28.972Z,95461.00
2024-04-09T15:05:29.068Z,95466.00
2024-04-09T15:06:29.117Z,95470.00
2024-04-09T15:07:29.214Z,95475.00
2024-04-09T15:08:29.352Z,95478.00
2024-04-09T15:09:29.976Z,95492.00
2024-04-09T15:10:29.535Z,95493.00
2024-04-09T15:11:29.750Z,95500.00
2024-04-09T15:12:29.866Z,95504.00
2024-04-09T15:13:29.779Z,95514.00
2024-04-09T15:14:29.980Z,95520.00
2024-04-09T15:15:29.964Z,95518.00
2024-04-09T15:16:30.088Z,95518.00
2024-04-09T15:17:30.232Z,95523.00
2024-04-09T15:18:30.343Z,95528.00
2024-04-09T15:19:30.351Z,95532.00
2024-04-09T15:20:30.467Z,95529.00
2024-04-09T15:21:30.555Z,95532.00
2024-04-09T15:22:30.654Z,95533.00
2024-04-09T15:23:30.777Z,95535.00
2024-04-09T15:24:35.867Z,95541.00
2024-04-09T15:25:30.843Z,95541.00
2024-04-09T15:26:30.954Z,95547.00
2024-04-09T15:27:30.855Z,95549.00
2024-04-09T15:28:31.749Z,95546.00
2024-04-09T15:29:30.874Z,95555.00
2024-04-09T15:30:30.859Z,95562.00
2024-04-09T15:31:30.854Z,95566.00
2024-04-09T15:32:31.045Z,95563.00
2024-04-09T15:33:30.944Z,95572.00
2024-04-09T15:34:31.035Z,95577.00
2024-04-09T15:35:31.178Z,95580.00
2024-04-09T15:36:31.209Z,95584.00
2024-04-09T15:37:31.292Z,95578.00
2024-04-09T15:38:31.485Z,95584.00
2024-04-09T15:39:31.523Z,95588.00
2024-04-09T15:40:31.694Z,95589.00
2024-04-09T15:41:31.724Z,95590.00
2024-04-09T15:42:31.795Z,95599.00
2024-04-09T15:43:31.893Z,95605.00
2024-04-09T15:44:32.084Z,95608.00
2024-04-09T15:45:32.115Z,95612.00
2024-04-09T15:46:32.222Z,95621.00
2024-04-09T15:47:32.477Z,95628.00
2024-04-09T15:48:32.514Z,95629.00
2024-04-09T15:49:32.548Z,95632.00
2024-04-09T15:50:32.691Z,95637.00
2024-04-09T15:51:32.770Z,95642.00
2024-04-09T15:52:32.871Z,95643.00
2024-04-09T15:53:33.007Z,95649.00
2024-04-09T15:54:33.088Z,95648.00
2024-04-09T15:55:33.201Z,95651.00
2024-04-09T15:56:33.349Z,95657.00
2024-04-09T15:57:33.425Z,95660.00
2024-04-09T15:58:33.636Z,95663.00
2024-04-09T15:59:33.728Z,95664.00
2024-04-09T16:00:33.860Z,95673.00
2024-04-09T16:01:33.899Z,95673.00
2024-04-09T16:02:34.183Z,95675.00
2024-04-09T16:03:34.272Z,95679.00
2024-04-09T16:04:34.327Z,95683.00
2024-04-09T16:05:34.532Z,95687.00
2024-04-09T16:06:34.481Z,95692.00
2024-04-09T16:07:34.588Z,95701.00
2024-04-09T16:08:34.758Z,95704.00
2024-04-09T16:09:39.411Z,95709.00
2024-04-09T16:10:34.862Z,95707.00
2024-04-09T16:11:34.983Z,95713.00
2024-04-09T16:12:34.914Z,95706.00
2024-04-09T16:13:34.845Z,95705.00
2024-04-09T16:14:34.895Z,95705.00
2024-04-09T16:15:34.845Z,95710.00
2024-04-09T16:16:34.833Z,95712.00
2024-04-09T16:17:35.007Z,95717.00
2024-04-09T16:18:34.896Z,95719.00
2024-04-09T16:19:34.968Z,95727.00
2024-04-09T16:20:34.936Z,95731.00
2024-04-09T16:21:34.860Z,95734.00
2024-04-09T16:22:34.863Z,95741.00
2024-04-09T16:23:34.902Z,95745.00
2024-04-09T16:24:34.858Z,95750.00
2024-04-09T16:25:34.854Z,95755.00
2024-04-09T16:26:34.891Z,95753.00
2024-04-09T16:27:34.954Z,95752.00
2024-04-09T16:28:35.097Z,95760.00
2024-04-09T16:29:35.335Z,95761.00
2024-04-09T16:30:35.309Z,95766.00
2024-04-09T16:31:35.431Z,95769.00
2024-04-09T16:32:35.868Z,95768.00
2024-04-09T16:33:35.746Z,95773.00
2024-04-09T16:34:35.818Z,95774.00
2024-04-09T16:35:35.984Z,95780.00
2024-04-09T16:36:36.076Z,95781.00
2024-04-09T16:37:36.220Z,95783.00
2024-04-09T16:38:36.998Z,95783.00
2024-04-09T16:39:36.473Z,95789.00
2024-04-09T16:40:36.593Z,95793.00
2024-04-09T16:41:36.800Z,95799.00
2024-04-09T16:42:36.866Z,95799.00
2024-04-09T16:43:38.599Z,95800.00
2024-04-09T16:44:37.019Z,95804.00
2024-04-09T16:45:36.999Z,95813.00
2024-04-09T16:46:37.021Z,95816.00
2024-04-09T16:47:37.154Z,95819.00
2024-04-09T16:48:37.131Z,95817.00
2024-04-09T16:49:37.020Z,95819.00
2024-04-09T16:50:37.073Z,95824.00
2024-04-09T16:51:37.005Z,95830.00
2024-04-09T16:52:37.039Z,95834.00
2024-04-09T16:53:44.687Z,95837.00
2024-04-09T16:54:44.670Z,95839.00
2024-04-09T16:55:44.694Z,95841.00
2024-04-09T16:56:44.816Z,95847.00
2024-04-09T16:57:45.577Z,95853.00
2024-04-09T16:58:44.768Z,95858.00
2024-04-09T16:59:44.707Z,95862.00
2024-04-09T17:00:44.762Z,95861.00
2024-04-09T17:01:44.744Z,95864.00
2024-04-09T17:02:44.749Z,95867.00
2024-04-09T17:03:44.876Z,95870.00
2024-04-09T17:04:44.797Z,95873.00
2024-04-09T17:05:44.894Z,95876.00
2024-04-09T17:06:44.723Z,95875.00
2024-04-09T17:07:44.738Z,95876.00
2024-04-09T17:08:44.723Z,95879.00
2024-04-09T17:09:44.703Z,95880.00
2024-04-09T17:10:44.947Z,95880.00
2024-04-09T17:11:45.063Z,95882.00
2024-04-09T17:12:45.077Z,95883.00
2024-04-09T17:14:45.350Z,95887.00
2024-04-09T17:15:45.428Z,95891.00
2024-04-09T17:16:45.881Z,95893.00
2024-04-09T17:17:45.931Z,95895.00
2024-04-09T17:18:45.897Z,95896.00
2024-04-09T17:19:45.991Z,95901.00
2024-04-09T17:20:46.060Z,95905.00
2024-04-09T17:21:46.162Z,95907.00
2024-04-09T17:22:46.355Z,95911.00
2024-04-09T17:23:46.402Z,95913.00
2024-04-09T17:24:46.501Z,95917.00
2024-04-09T17:25:46.664Z,95918.00
2024-04-09T17:26:46.713Z,95923.00
2024-04-09T17:27:46.848Z,95920.00
2024-04-09T17:28:47.087Z,95927.00
2024-04-09T17:29:47.059Z,95928.00
2024-04-09T17:30:47.173Z,95925.00
2024-04-09T17:31:47.343Z,95926.00
2024-04-09T17:32:47.582Z,95929.00
2024-04-09T17:33:47.658Z,95932.00
2024-04-09T17:34:47.747Z,95940.00
2024-04-09T17:35:47.826Z,95946.00
2024-04-09T17:36:47.948Z,95948.00
2024-04-09T17:37:48.102Z,95949.00
2024-04-09T17:38:48.184Z,95954.00
2024-04-09T17:39:48.312Z,95956.00
2024-04-09T17:40:48.418Z,95962.00
2024-04-09T17:41:48.484Z,95969.00